createdAt,value
2023-02-03T00:02:21.952Z,1027.65
2023-02-03T00:07:21.007Z,1027.60
2023-02-03T00:12:21.298Z,1027.61
2023-02-03T00:17:20.623Z,1027.57
2023-02-03T00:22:19.918Z,1027.44
2023-02-03T00:27:18.224Z,1027.46
2023-02-03T00:32:17.648Z,1027.43
2023-02-03T00:37:16.830Z,1027.39
2023-02-03T00:42:16.162Z,1027.46
2023-02-03T00:47:15.475Z,1027.65
2023-02-03T00:52:14.776Z,1027.64
2023-02-03T00:57:13.986Z,1027.56
2023-02-03T01:02:13.316Z,1027.54
2023-02-03T01:07:12.449Z,1027.46
2023-02-03T01:12:11.734Z,1027.51
2023-02-03T01:17:12.011Z,1027.63
2023-02-03T01:22:11.291Z,1027.56
2023-02-03T01:27:11.596Z,1027.53
2023-02-03T01:32:08.899Z,1027.39
2023-02-03T01:37:08.219Z,1027.39
2023-02-03T01:42:08.477Z,1027.34
2023-02-03T01:47:06.789Z,1027.53
2023-02-03T01:52:07.065Z,1027.67
2023-02-03T01:57:06.336Z,1027.63
2023-02-03T02:02:04.610Z,1027.56
2023-02-03T02:07:03.845Z,1027.68
2023-02-03T02:12:03.117Z,1027.67
2023-02-03T02:17:03.455Z,1027.75
2023-02-03T02:22:02.775Z,1027.87
2023-02-03T02:27:02.098Z,1027.89
2023-02-03T02:32:01.443Z,1027.89
2023-02-03T02:36:59.554Z,1027.88
2023-02-03T02:41:58.840Z,1027.89
2023-02-03T02:46:59.149Z,1027.58
2023-02-03T02:51:58.697Z,1027.55
2023-02-03T02:56:57.578Z,1027.53
2023-02-03T03:01:57.939Z,1027.53
2023-02-03T03:06:55.083Z,1027.42
2023-02-03T03:11:54.401Z,1027.52
2023-02-03T03:16:53.719Z,1027.45
2023-02-03T03:21:54.033Z,1027.45
2023-02-03T03:26:52.336Z,1027.46
2023-02-03T03:31:53.609Z,1027.55
2023-02-03T03:36:50.914Z,1027.38
2023-02-03T03:41:50.181Z,1027.10
2023-02-03T03:46:49.491Z,1027.09
2023-02-03T03:51:49.799Z,1027.10
2023-02-03T03:56:48.087Z,1027.32
2023-02-03T04:01:48.562Z,1027.43
2023-02-03T04:06:46.672Z,1027.28
2023-02-03T04:11:45.948Z,1026.96
2023-02-03T04:16:47.237Z,1026.85
2023-02-03T04:21:44.505Z,1026.84
2023-02-03T04:26:44.841Z,1026.82
2023-02-03T04:31:43.153Z,1026.84
2023-02-03T04:36:43.256Z,1026.64
2023-02-03T04:41:41.561Z,1026.69
2023-02-03T04:46:40.841Z,1026.80
2023-02-03T04:51:41.099Z,1027.02
2023-02-03T04:56:39.380Z,1027.18
2023-02-03T05:01:39.647Z,1027.16
2023-02-03T05:06:37.911Z,1027.38
2023-02-03T05:11:38.234Z,1027.50
2023-02-03T05:16:37.540Z,1027.31
2023-02-03T05:21:35.640Z,1027.35
2023-02-03T05:26:36.938Z,1027.73
2023-02-03T05:31:34.309Z,1027.72
2023-02-03T05:36:34.454Z,1027.71
2023-02-03T05:41:33.809Z,1027.84
2023-02-03T05:46:35.082Z,1027.98
2023-02-03T05:51:31.197Z,1028.11
2023-02-03T05:56:30.524Z,1027.92
2023-02-03T06:01:30.838Z,1028.07
2023-02-03T06:06:31.292Z,1028.05
2023-02-03T06:11:28.370Z,1027.66
2023-02-03T06:16:28.723Z,1027.70
2023-02-03T06:21:26.831Z,1027.63
2023-02-03T06:26:28.143Z,1027.72
2023-02-03T06:31:25.504Z,1027.86
2023-02-03T06:36:25.862Z,1027.84
2023-02-03T06:41:23.960Z,1027.63
2023-02-03T06:46:24.365Z,1027.66
2023-02-03T06:51:23.513Z,1027.86
2023-02-03T06:56:22.808Z,1028.03
2023-02-03T07:01:23.175Z,1028.14
2023-02-03T07:06:20.251Z,1028.09
2023-02-03T07:11:20.554Z,1028.02
2023-02-03T07:16:18.910Z,1028.07
2023-02-03T07:21:19.040Z,1028.21
2023-02-03T07:26:18.487Z,1028.28
2023-02-03T07:31:16.673Z,1028.29
2023-02-03T07:36:15.856Z,1028.30
2023-02-03T07:41:17.019Z,1028.19
2023-02-03T07:46:14.574Z,1028.20
2023-02-03T07:51:13.690Z,1028.31
2023-02-03T07:56:12.999Z,1028.30
2023-02-03T08:01:13.495Z,1028.29
2023-02-03T08:06:11.611Z,1028.38
2023-02-03T08:11:10.924Z,1028.56
2023-02-03T08:16:11.266Z,1028.43
2023-02-03T08:21:09.417Z,1028.53
2023-02-03T08:26:10.739Z,1028.36
2023-02-03T08:31:08.133Z,1028.28
2023-02-03T08:36:06.557Z,1028.34
2023-02-03T08:41:08.544Z,1028.39
2023-02-03T08:46:06.131Z,1028.29
2023-02-03T08:51:05.884Z,1028.36
2023-02-03T08:56:05.165Z,1028.47
2023-02-03T09:01:03.349Z,1028.45
2023-02-03T09:06:02.466Z,1028.42
2023-02-03T09:11:00.811Z,1028.41
2023-02-03T09:16:01.114Z,1028.45
2023-02-03T09:21:00.401Z,1028.46
2023-02-03T09:26:01.714Z,1028.45
2023-02-03T09:31:00.072Z,1028.40
2023-02-03T09:35:58.219Z,1028.39
2023-02-03T09:41:10.569Z,1028.34
2023-02-03T09:45:57.739Z,1028.32
2023-02-03T09:50:54.907Z,1028.24
2023-02-03T09:55:55.057Z,1028.08
2023-02-03T10:00:55.306Z,1028.15
2023-02-03T10:05:53.461Z,1028.15
2023-02-03T10:10:54.613Z,1028.27
2023-02-03T10:15:51.931Z,1028.22
2023-02-03T10:20:51.257Z,1028.13
2023-02-03T10:25:51.567Z,1028.22
2023-02-03T10:30:50.994Z,1028.21
2023-02-03T10:35:50.122Z,1028.27
2023-02-03T10:40:49.465Z,1028.14
2023-02-03T10:45:48.601Z,1027.94
2023-02-03T10:50:46.916Z,1027.73
2023-02-03T10:55:46.225Z,1027.83
2023-02-03T11:00:45.549Z,1027.62
2023-02-03T11:05:44.870Z,1027.57
2023-02-03T11:10:44.026Z,1027.44
2023-02-03T11:15:43.173Z,1027.25
2023-02-03T11:20:41.272Z,1027.24
2023-02-03T11:25:42.616Z,1027.11
2023-02-03T11:30:41.012Z,1027.18
2023-02-03T11:35:40.120Z,1027.16
2023-02-03T11:40:39.456Z,1027.20
2023-02-03T11:45:39.940Z,1027.25
2023-02-03T11:50:40.083Z,1027.42
2023-02-03T11:55:37.282Z,1027.34
2023-02-03T12:00:36.463Z,1027.24
2023-02-03T12:05:36.578Z,1027.12
2023-02-03T12:10:35.934Z,1027.12
2023-02-03T12:15:36.048Z,1027.17
2023-02-03T12:20:33.367Z,1027.08
2023-02-03T12:25:32.505Z,1027.08
2023-02-03T12:30:33.933Z,1027.19
2023-02-03T12:35:32.194Z,1026.94
2023-02-03T12:40:30.583Z,1026.62
2023-02-03T12:45:29.562Z,1026.50
2023-02-03T12:50:29.111Z,1026.44
2023-02-03T12:55:27.942Z,1026.37
2023-02-03T13:00:28.603Z,1026.26
2023-02-03T13:05:25.469Z,1026.04
2023-02-03T13:10:25.667Z,1026.00
2023-02-03T13:15:25.821Z,1026.02
2023-02-03T13:20:26.363Z,1026.08
2023-02-03T13:25:23.371Z,1026.06
2023-02-03T13:30:22.714Z,1025.95
2023-02-03T13:35:32.249Z,1025.95
2023-02-03T13:40:23.196Z,1025.70
2023-02-03T13:45:20.471Z,1025.76
2023-02-03T13:50:18.768Z,1025.89
2023-02-03T13:55:19.154Z,1025.89
2023-02-03T14:00:19.259Z,1025.68
2023-02-03T14:05:18.569Z,1025.82
2023-02-03T14:10:17.733Z,1025.84
2023-02-03T14:15:15.851Z,1025.80
2023-02-03T14:20:16.969Z,1025.96
2023-02-03T14:25:14.301Z,1025.98
2023-02-03T14:30:14.603Z,1026.06
2023-02-03T14:35:12.939Z,1026.07
2023-02-03T14:40:12.239Z,1026.09
2023-02-03T14:45:11.224Z,1026.14
2023-02-03T14:50:11.366Z,1026.05
2023-02-03T14:55:09.665Z,1026.05
2023-02-03T15:00:09.045Z,1025.97
2023-02-03T15:05:09.234Z,1025.89
2023-02-03T15:10:09.334Z,1025.89
2023-02-03T15:15:05.656Z,1026.06
2023-02-03T15:20:05.987Z,1025.98
2023-02-03T15:25:06.131Z,1026.11
2023-02-03T15:30:04.465Z,1025.96
2023-02-03T15:35:03.615Z,1025.85
2023-02-03T15:40:03.772Z,1025.85
2023-02-03T15:45:02.115Z,1025.91
2023-02-03T15:50:01.276Z,1025.90
2023-02-03T15:55:00.378Z,1026.07
2023-02-03T16:00:00.725Z,1026.09
2023-02-03T16:04:59.061Z,1026.02
2023-02-03T16:09:58.365Z,1026.00
2023-02-03T16:14:57.796Z,1026.07
2023-02-03T16:19:56.949Z,1026.19
2023-02-03T16:24:56.261Z,1026.30
2023-02-03T16:29:55.582Z,1026.34
2023-02-03T16:34:55.923Z,1026.29
2023-02-03T16:39:54.267Z,1026.30
2023-02-03T16:44:53.397Z,1026.13
2023-02-03T16:49:52.701Z,1026.12
2023-02-03T16:54:55.009Z,1026.00
2023-02-03T16:59:51.324Z,1025.96
2023-02-03T17:04:51.485Z,1025.98
2023-02-03T17:09:49.600Z,1026.09
2023-02-03T17:14:49.915Z,1026.29
2023-02-03T17:19:48.255Z,1026.23
2023-02-03T17:24:47.694Z,1026.08
2023-02-03T17:29:47.706Z,1025.94
2023-02-03T17:34:46.890Z,1025.97
2023-02-03T23:12:56.009Z,1027.54
2023-02-03T23:17:54.299Z,1027.60
2023-02-03T23:22:53.576Z,1027.43
2023-02-03T23:27:52.905Z,1027.37
2023-02-03T23:32:52.220Z,1027.45
2023-02-03T23:37:52.463Z,1027.39
2023-02-03T23:42:50.744Z,1027.40
2023-02-03T23:47:50.071Z,1027.25
2023-02-03T23:52:51.395Z,1027.30
2023-02-03T23:57:50.673Z,1027.26
